sensor_id;sensor_type;location;lat;lon;timestamp;temperature;humidity
1123;DHT22;548;48.778;9.252;2022-12-26T00:00:01;11.40;99.90
1123;DHT22;548;48.778;9.252;2022-12-26T00:02:29;12.10;99.90
1123;DHT22;548;48.778;9.252;2022-12-26T00:04:56;11.30;99.90
1123;DHT22;548;48.778;9.252;2022-12-26T00:07:24;11.30;99.90
1123;DHT22;548;48.778;9.252;2022-12-26T00:09:51;11.20;99.90
1123;DHT22;548;48.778;9.252;2022-12-26T00:12:17;11.40;99.90
1123;DHT22;548;48.778;9.252;2022-12-26T00:14:44;11.40;99.90
1123;DHT22;548;48.778;9.252;2022-12-26T00:17:11;11.50;99.90
1123;DHT22;548;48.778;9.252;2022-12-26T00:19:38;11.50;99.90
1123;DHT22;548;48.778;9.252;2022-12-26T00:22:04;11.60;99.90
1123;DHT22;548;48.778;9.252;2022-12-26T00:24:32;11.70;99.90
1123;DHT22;548;48.778;9.252;2022-12-26T00:26:59;11.60;99.90
1123;DHT22;548;48.778;9.252;2022-12-26T00:29:26;11.60;99.90
1123;DHT22;548;48.778;9.252;2022-12-26T00:31:52;11.70;99.90
1123;DHT22;548;48.778;9.252;2022-12-26T00:34:19;11.70;99.90
1123;DHT22;548;48.778;9.252;2022-12-26T00:36:46;11.80;99.90
1123;DHT22;548;48.778;9.252;2022-12-26T00:39:12;11.90;99.90
1123;DHT22;548;48.778;9.252;2022-12-26T00:41:43;11.90;99.90
1123;DHT22;548;48.778;9.252;2022-12-26T00:44:10;11.90;99.90
1123;DHT22;548;48.778;9.252;2022-12-26T00:46:36;11.90;99.90
1123;DHT22;548;48.778;9.252;2022-12-26T00:49:03;11.90;99.90
1123;DHT22;548;48.778;9.252;2022-12-26T00:51:30;11.80;99.90
1123;DHT22;548;48.778;9.252;2022-12-26T00:53:56;11.80;99.90
1123;DHT22;548;48.778;9.252;2022-12-26T00:56:23;11.70;99.90
1123;DHT22;548;48.778;9.252;2022-12-26T00:58:51;11.70;99.90
1123;DHT22;548;48.778;9.252;2022-12-26T01:01:19;11.60;99.90
1123;DHT22;548;48.778;9.252;2022-12-26T01:03:48;11.60;99.90
1123;DHT22;548;48.778;9.252;2022-12-26T01:06:15;11.50;99.90
1123;DHT22;548;48.778;9.252;2022-12-26T01:08:42;11.50;99.90
1123;DHT22;548;48.778;9.252;2022-12-26T01:11:11;11.40;99.90
1123;DHT22;548;48.778;9.252;2022-12-26T01:13:38;11.30;99.90
1123;DHT22;548;48.778;9.252;2022-12-26T01:16:07;11.10;99.90
1123;DHT22;548;48.778;9.252;2022-12-26T01:18:34;10.90;99.90
1123;DHT22;548;48.778;9.252;2022-12-26T01:21:03;10.80;99.90
1123;DHT22;548;48.778;9.252;2022-12-26T01:23:30;10.70;99.90
1123;DHT22;548;48.778;9.252;2022-12-26T01:25:56;10.60;99.90
1123;DHT22;548;48.778;9.252;2022-12-26T01:28:23;10.60;99.90
1123;DHT22;548;48.778;9.252;2022-12-26T01:30:50;10.60;99.90
1123;DHT22;548;48.778;9.252;2022-12-26T01:33:18;10.60;99.90
1123;DHT22;548;48.778;9.252;2022-12-26T01:35:49;10.60;99.90
1123;DHT22;548;48.778;9.252;2022-12-26T01:38:16;10.50;99.90
1123;DHT22;548;48.778;9.252;2022-12-26T01:40:43;10.50;99.90
1123;DHT22;548;48.778;9.252;2022-12-26T01:43:12;10.50;99.90
1123;DHT22;548;48.778;9.252;2022-12-26T01:45:39;10.50;99.90
1123;DHT22;548;48.778;9.252;2022-12-26T01:48:13;10.50;99.90
1123;DHT22;548;48.778;9.252;2022-12-26T01:50:45;10.40;99.90
1123;DHT22;548;48.778;9.252;2022-12-26T01:53:17;10.40;99.90
1123;DHT22;548;48.778;9.252;2022-12-26T01:55:48;10.40;99.90
1123;DHT22;548;48.778;9.252;2022-12-26T01:58:20;10.40;99.90
1123;DHT22;548;48.778;9.252;2022-12-26T02:00:49;10.40;99.90
1123;DHT22;548;48.778;9.252;2022-12-26T02:03:16;10.30;99.90
1123;DHT22;548;48.778;9.252;2022-12-26T02:06:02;10.30;99.90
1123;DHT22;548;48.778;9.252;2022-12-26T02:08:30;10.30;99.90
1123;DHT22;548;48.778;9.252;2022-12-26T02:11:06;10.50;99.90
1123;DHT22;548;48.778;9.252;2022-12-26T02:13:37;10.30;99.90
1123;DHT22;548;48.778;9.252;2022-12-26T02:16:06;10.30;99.90
1123;DHT22;548;48.778;9.252;2022-12-26T02:18:34;10.40;99.90
1123;DHT22;548;48.778;9.252;2022-12-26T02:21:20;10.40;99.90
1123;DHT22;548;48.778;9.252;2022-12-26T02:24:23;10.40;99.90
1123;DHT22;548;48.778;9.252;2022-12-26T02:27:08;10.40;99.90
1123;DHT22;548;48.778;9.252;2022-12-26T02:29:56;10.40;99.90
1123;DHT22;548;48.778;9.252;2022-12-26T02:32:38;10.40;99.90
1123;DHT22;548;48.778;9.252;2022-12-26T02:35:14;10.40;99.90
1123;DHT22;548;48.778;9.252;2022-12-26T02:37:53;10.40;99.90
1123;DHT22;548;48.778;9.252;2022-12-26T02:40:32;10.40;99.90
1123;DHT22;548;48.778;9.252;2022-12-26T02:43:10;10.50;99.90
1123;DHT22;548;48.778;9.252;2022-12-26T02:45:41;10.50;99.90
1123;DHT22;548;48.778;9.252;2022-12-26T02:48:35;10.50;99.90
1123;DHT22;548;48.778;9.252;2022-12-26T02:51:12;10.50;99.90
1123;DHT22;548;48.778;9.252;2022-12-26T02:54:04;10.60;99.90
1123;DHT22;548;48.778;9.252;2022-12-26T02:56:55;10.60;99.90
1123;DHT22;548;48.778;9.252;2022-12-26T02:59:47;10.70;99.90
1123;DHT22;548;48.778;9.252;2022-12-26T03:02:37;10.70;99.90
1123;DHT22;548;48.778;9.252;2022-12-26T03:05:28;10.90;99.90
1123;DHT22;548;48.778;9.252;2022-12-26T03:08:19;11.00;99.90
1123;DHT22;548;48.778;9.252;2022-12-26T03:11:04;11.10;99.90
1123;DHT22;548;48.778;9.252;2022-12-26T03:13:51;11.20;99.90
1123;DHT22;548;48.778;9.252;2022-12-26T03:16:20;11.20;99.90
1123;DHT22;548;48.778;9.252;2022-12-26T03:19:07;11.20;99.90
1123;DHT22;548;48.778;9.252;2022-12-26T03:21:41;11.20;99.90
1123;DHT22;548;48.778;9.252;2022-12-26T03:24:09;11.20;99.90
1123;DHT22;548;48.778;9.252;2022-12-26T03:26:39;11.30;99.90
1123;DHT22;548;48.778;9.252;2022-12-26T03:29:15;11.40;99.90
1123;DHT22;548;48.778;9.252;2022-12-26T03:32:04;11.50;99.90
1123;DHT22;548;48.778;9.252;2022-12-26T03:34:33;11.60;99.90
1123;DHT22;548;48.778;9.252;2022-12-26T03:37:27;11.70;99.90
1123;DHT22;548;48.778;9.252;2022-12-26T03:40:03;11.80;99.90
1123;DHT22;548;48.778;9.252;2022-12-26T03:42:57;11.80;99.90
1123;DHT22;548;48.778;9.252;2022-12-26T03:45:48;11.80;99.90
1123;DHT22;548;48.778;9.252;2022-12-26T03:48:39;11.80;99.90
1123;DHT22;548;48.778;9.252;2022-12-26T03:51:28;11.70;99.90
1123;DHT22;548;48.778;9.252;2022-12-26T03:54:20;11.60;99.90
1123;DHT22;548;48.778;9.252;2022-12-26T03:57:09;11.40;99.90
1123;DHT22;548;48.778;9.252;2022-12-26T03:59:59;11.30;99.90
1123;DHT22;548;48.778;9.252;2022-12-26T04:02:45;11.10;99.90
1123;DHT22;548;48.778;9.252;2022-12-26T04:05:31;11.00;99.90
1123;DHT22;548;48.778;9.252;2022-12-26T04:08:21;10.90;99.90
1123;DHT22;548;48.778;9.252;2022-12-26T04:11:11;10.80;99.90
1123;DHT22;548;48.778;9.252;2022-12-26T04:14:02;10.70;99.90
1123;DHT22;548;48.778;9.252;2022-12-26T04:16:52;10.60;99.90
1123;DHT22;548;48.778;9.252;2022-12-26T04:20:04;10.60;99.90
1123;DHT22;548;48.778;9.252;2022-12-26T04:22:38;10.60;99.90
1123;DHT22;548;48.778;9.252;2022-12-26T04:25:25;10.50;99.90
1123;DHT22;548;48.778;9.252;2022-12-26T04:28:11;10.50;99.90
1123;DHT22;548;48.778;9.252;2022-12-26T04:30:58;10.50;99.90
1123;DHT22;548;48.778;9.252;2022-12-26T04:33:49;10.50;99.90
1123;DHT22;548;48.778;9.252;2022-12-26T04:36:39;10.50;99.90
1123;DHT22;548;48.778;9.252;2022-12-26T04:39:29;10.60;99.90
1123;DHT22;548;48.778;9.252;2022-12-26T04:42:15;10.70;99.90
1123;DHT22;548;48.778;9.252;2022-12-26T04:45:02;10.90;99.90
1123;DHT22;548;48.778;9.252;2022-12-26T04:47:30;11.00;99.90
1123;DHT22;548;48.778;9.252;2022-12-26T04:49:57;11.10;99.90
1123;DHT22;548;48.778;9.252;2022-12-26T04:52:40;11.10;99.90
1123;DHT22;548;48.778;9.252;2022-12-26T04:55:27;11.10;99.90
1123;DHT22;548;48.778;9.252;2022-12-26T04:57:54;11.10;99.90
1123;DHT22;548;48.778;9.252;2022-12-26T05:00:23;11.10;99.90
1123;DHT22;548;48.778;9.252;2022-12-26T05:02:52;11.40;99.90
1123;DHT22;548;48.778;9.252;2022-12-26T05:05:39;11.20;99.90
1123;DHT22;548;48.778;9.252;2022-12-26T05:08:27;11.10;99.90
1123;DHT22;548;48.778;9.252;2022-12-26T05:11:12;11.10;99.90
1123;DHT22;548;48.778;9.252;2022-12-26T05:13:39;11.00;99.90
1123;DHT22;548;48.778;9.252;2022-12-26T05:16:07;11.00;99.90
1123;DHT22;548;48.778;9.252;2022-12-26T05:18:52;11.00;99.90
1123;DHT22;548;48.778;9.252;2022-12-26T05:21:39;11.00;99.90
1123;DHT22;548;48.778;9.252;2022-12-26T05:24:33;11.10;99.90
1123;DHT22;548;48.778;9.252;2022-12-26T05:27:18;11.10;99.90
1123;DHT22;548;48.778;9.252;2022-12-26T05:30:03;11.10;99.90
1123;DHT22;548;48.778;9.252;2022-12-26T05:32:32;11.10;99.90
1123;DHT22;548;48.778;9.252;2022-12-26T05:35:16;11.20;99.90
1123;DHT22;548;48.778;9.252;2022-12-26T05:37:43;11.30;99.90
1123;DHT22;548;48.778;9.252;2022-12-26T05:40:10;11.20;99.90
1123;DHT22;548;48.778;9.252;2022-12-26T05:42:37;11.20;99.90
1123;DHT22;548;48.778;9.252;2022-12-26T05:45:05;11.10;99.90
1123;DHT22;548;48.778;9.252;2022-12-26T05:47:33;11.10;99.90
1123;DHT22;548;48.778;9.252;2022-12-26T05:50:00;11.10;99.90
1123;DHT22;548;48.778;9.252;2022-12-26T05:52:27;11.10;99.90
1123;DHT22;548;48.778;9.252;2022-12-26T05:54:53;11.10;99.90
1123;DHT22;548;48.778;9.252;2022-12-26T05:57:20;11.10;99.90
1123;DHT22;548;48.778;9.252;2022-12-26T05:59:47;11.20;99.90
1123;DHT22;548;48.778;9.252;2022-12-26T06:02:13;11.20;99.90
1123;DHT22;548;48.778;9.252;2022-12-26T06:04:41;11.20;99.90
1123;DHT22;548;48.778;9.252;2022-12-26T06:07:08;11.20;99.90
1123;DHT22;548;48.778;9.252;2022-12-26T06:09:35;11.20;99.90
1123;DHT22;548;48.778;9.252;2022-12-26T06:12:01;11.20;99.90
1123;DHT22;548;48.778;9.252;2022-12-26T06:14:28;11.10;99.90
1123;DHT22;548;48.778;9.252;2022-12-26T06:16:55;11.10;99.90
1123;DHT22;548;48.778;9.252;2022-12-26T06:19:21;11.10;99.90
1123;DHT22;548;48.778;9.252;2022-12-26T06:21:49;11.00;99.90
1123;DHT22;548;48.778;9.252;2022-12-26T06:24:16;11.00;99.90
1123;DHT22;548;48.778;9.252;2022-12-26T06:26:43;11.00;99.90
1123;DHT22;548;48.778;9.252;2022-12-26T06:29:10;11.00;99.90
1123;DHT22;548;48.778;9.252;2022-12-26T06:31:36;11.00;99.90
1123;DHT22;548;48.778;9.252;2022-12-26T06:34:03;10.90;99.90
1123;DHT22;548;48.778;9.252;2022-12-26T06:36:30;10.90;99.90
1123;DHT22;548;48.778;9.252;2022-12-26T06:38:58;10.90;99.90
1123;DHT22;548;48.778;9.252;2022-12-26T06:41:25;10.90;99.90
1123;DHT22;548;48.778;9.252;2022-12-26T06:43:52;10.90;99.90
1123;DHT22;548;48.778;9.252;2022-12-26T06:46:22;10.90;99.90
1123;DHT22;548;48.778;9.252;2022-12-26T06:48:49;10.90;99.90
1123;DHT22;548;48.778;9.252;2022-12-26T06:51:18;10.90;99.90
1123;DHT22;548;48.778;9.252;2022-12-26T06:53:45;10.90;99.90
1123;DHT22;548;48.778;9.252;2022-12-26T06:56:15;11.00;99.90
1123;DHT22;548;48.778;9.252;2022-12-26T06:58:42;10.90;99.90
1123;DHT22;548;48.778;9.252;2022-12-26T07:01:12;10.90;99.90
1123;DHT22;548;48.778;9.252;2022-12-26T07:03:39;10.90;99.90
1123;DHT22;548;48.778;9.252;2022-12-26T07:06:10;10.90;99.90
1123;DHT22;548;48.778;9.252;2022-12-26T07:08:37;10.90;99.90
1123;DHT22;548;48.778;9.252;2022-12-26T07:11:04;10.90;99.90
1123;DHT22;548;48.778;9.252;2022-12-26T07:13:39;11.00;99.90
1123;DHT22;548;48.778;9.252;2022-12-26T07:16:06;11.10;99.90
1123;DHT22;548;48.778;9.252;2022-12-26T07:18:32;11.10;99.90
1123;DHT22;548;48.778;9.252;2022-12-26T07:20:59;11.10;99.90
1123;DHT22;548;48.778;9.252;2022-12-26T07:23:26;11.10;99.90
1123;DHT22;548;48.778;9.252;2022-12-26T07:25:54;11.10;99.90
1123;DHT22;548;48.778;9.252;2022-12-26T07:28:20;11.10;99.90
1123;DHT22;548;48.778;9.252;2022-12-26T07:30:49;11.10;99.90
1123;DHT22;548;48.778;9.252;2022-12-26T07:33:15;11.20;99.90
1123;DHT22;548;48.778;9.252;2022-12-26T07:35:43;11.20;99.90
1123;DHT22;548;48.778;9.252;2022-12-26T07:38:10;11.20;99.90
1123;DHT22;548;48.778;9.252;2022-12-26T07:40:37;11.20;99.90
1123;DHT22;548;48.778;9.252;2022-12-26T07:43:04;11.30;99.90
1123;DHT22;548;48.778;9.252;2022-12-26T07:45:31;11.30;99.90
1123;DHT22;548;48.778;9.252;2022-12-26T07:47:59;11.30;99.90
1123;DHT22;548;48.778;9.252;2022-12-26T07:50:26;11.20;99.90
1123;DHT22;548;48.778;9.252;2022-12-26T07:52:53;11.20;99.90
1123;DHT22;548;48.778;9.252;2022-12-26T07:55:21;11.20;99.90
1123;DHT22;548;48.778;9.252;2022-12-26T07:57:49;11.20;99.90
1123;DHT22;548;48.778;9.252;2022-12-26T08:00:16;11.20;99.90
1123;DHT22;548;48.778;9.252;2022-12-26T08:02:45;11.10;99.90
1123;DHT22;548;48.778;9.252;2022-12-26T08:05:14;11.00;99.90
1123;DHT22;548;48.778;9.252;2022-12-26T08:07:41;11.10;99.90
1123;DHT22;548;48.778;9.252;2022-12-26T08:10:08;11.10;99.90
1123;DHT22;548;48.778;9.252;2022-12-26T08:12:35;11.10;99.90
1123;DHT22;548;48.778;9.252;2022-12-26T08:15:01;11.00;99.90
1123;DHT22;548;48.778;9.252;2022-12-26T08:17:28;11.00;99.90
1123;DHT22;548;48.778;9.252;2022-12-26T08:19:57;10.90;99.90
1123;DHT22;548;48.778;9.252;2022-12-26T08:22:26;10.90;99.90
1123;DHT22;548;48.778;9.252;2022-12-26T08:24:53;10.80;99.90
1123;DHT22;548;48.778;9.252;2022-12-26T08:27:19;10.80;99.90
1123;DHT22;548;48.778;9.252;2022-12-26T08:29:46;10.80;99.90
1123;DHT22;548;48.778;9.252;2022-12-26T08:32:13;10.80;99.90
1123;DHT22;548;48.778;9.252;2022-12-26T08:34:40;10.80;99.90
1123;DHT22;548;48.778;9.252;2022-12-26T08:37:06;10.80;99.90
1123;DHT22;548;48.778;9.252;2022-12-26T08:39:34;10.80;99.90
1123;DHT22;548;48.778;9.252;2022-12-26T08:42:02;10.80;99.90
1123;DHT22;548;48.778;9.252;2022-12-26T08:44:29;10.80;99.90
1123;DHT22;548;48.778;9.252;2022-12-26T08:46:56;10.80;99.90
1123;DHT22;548;48.778;9.252;2022-12-26T08:49:22;10.80;99.90
1123;DHT22;548;48.778;9.252;2022-12-26T08:51:49;10.80;99.90
1123;DHT22;548;48.778;9.252;2022-12-26T08:54:16;10.90;99.90
1123;DHT22;548;48.778;9.252;2022-12-26T08:56:44;11.00;99.90
1123;DHT22;548;48.778;9.252;2022-12-26T08:59:10;11.00;99.90
1123;DHT22;548;48.778;9.252;2022-12-26T09:01:37;11.00;99.90
1123;DHT22;548;48.778;9.252;2022-12-26T09:04:04;11.10;99.90
1123;DHT22;548;48.778;9.252;2022-12-26T09:06:33;11.00;99.90
1123;DHT22;548;48.778;9.252;2022-12-26T09:09:00;11.10;99.90
1123;DHT22;548;48.778;9.252;2022-12-26T09:11:27;11.20;99.90
1123;DHT22;548;48.778;9.252;2022-12-26T09:13:58;11.20;99.90
1123;DHT22;548;48.778;9.252;2022-12-26T09:16:27;11.30;99.90
1123;DHT22;548;48.778;9.252;2022-12-26T09:18:56;11.20;99.90
1123;DHT22;548;48.778;9.252;2022-12-26T09:21:24;11.10;99.90
1123;DHT22;548;48.778;9.252;2022-12-26T09:23:55;11.20;99.90
1123;DHT22;548;48.778;9.252;2022-12-26T09:26:22;11.10;99.90
1123;DHT22;548;48.778;9.252;2022-12-26T09:28:48;11.00;99.90
1123;DHT22;548;48.778;9.252;2022-12-26T09:31:18;11.00;99.90
1123;DHT22;548;48.778;9.252;2022-12-26T09:33:46;10.90;99.90
1123;DHT22;548;48.778;9.252;2022-12-26T09:36:14;10.80;99.90
1123;DHT22;548;48.778;9.252;2022-12-26T09:38:41;10.80;99.90
1123;DHT22;548;48.778;9.252;2022-12-26T09:41:46;10.70;99.90
1123;DHT22;548;48.778;9.252;2022-12-26T09:44:21;10.70;99.90
1123;DHT22;548;48.778;9.252;2022-12-26T09:47:04;10.70;99.90
1123;DHT22;548;48.778;9.252;2022-12-26T09:49:35;10.70;99.90
1123;DHT22;548;48.778;9.252;2022-12-26T09:52:09;10.60;99.90
1123;DHT22;548;48.778;9.252;2022-12-26T09:54:39;10.70;99.90
1123;DHT22;548;48.778;9.252;2022-12-26T09:57:10;10.80;99.90
1123;DHT22;548;48.778;9.252;2022-12-26T09:59:44;10.90;99.90
1123;DHT22;548;48.778;9.252;2022-12-26T10:02:17;11.00;99.90
1123;DHT22;548;48.778;9.252;2022-12-26T10:04:44;11.10;99.90
1123;DHT22;548;48.778;9.252;2022-12-26T10:07:18;11.10;99.90
1123;DHT22;548;48.778;9.252;2022-12-26T10:09:54;11.00;99.90
1123;DHT22;548;48.778;9.252;2022-12-26T10:12:38;11.00;99.90
1123;DHT22;548;48.778;9.252;2022-12-26T10:15:25;11.00;99.90
1123;DHT22;548;48.778;9.252;2022-12-26T10:17:57;11.00;99.90
1123;DHT22;548;48.778;9.252;2022-12-26T10:20:31;11.10;99.90
1123;DHT22;548;48.778;9.252;2022-12-26T10:23:31;11.20;99.90
1123;DHT22;548;48.778;9.252;2022-12-26T10:26:08;11.30;99.90
1123;DHT22;548;48.778;9.252;2022-12-26T10:28:41;11.50;99.90
1123;DHT22;548;48.778;9.252;2022-12-26T10:31:15;11.50;99.90
1123;DHT22;548;48.778;9.252;2022-12-26T10:33:48;11.60;99.90
1123;DHT22;548;48.778;9.252;2022-12-26T10:36:30;11.40;99.90
1123;DHT22;548;48.778;9.252;2022-12-26T10:38:58;11.20;99.90
1123;DHT22;548;48.778;9.252;2022-12-26T10:41:31;11.10;99.90
1123;DHT22;548;48.778;9.252;2022-12-26T10:43:59;11.20;99.90
1123;DHT22;548;48.778;9.252;2022-12-26T10:46:48;11.10;99.90
1123;DHT22;548;48.778;9.252;2022-12-26T10:49:21;11.10;99.90
1123;DHT22;548;48.778;9.252;2022-12-26T10:51:48;11.00;99.90
1123;DHT22;548;48.778;9.252;2022-12-26T10:54:16;11.00;99.90
1123;DHT22;548;48.778;9.252;2022-12-26T10:56:47;10.90;99.90
1123;DHT22;548;48.778;9.252;2022-12-26T10:59:17;10.90;99.90
1123;DHT22;548;48.778;9.252;2022-12-26T11:01:46;10.80;99.90
1123;DHT22;548;48.778;9.252;2022-12-26T11:04:20;10.70;99.90
1123;DHT22;548;48.778;9.252;2022-12-26T11:06:51;10.80;99.90
1123;DHT22;548;48.778;9.252;2022-12-26T11:09:33;10.80;99.90
1123;DHT22;548;48.778;9.252;2022-12-26T11:12:01;10.80;99.90
1123;DHT22;548;48.778;9.252;2022-12-26T11:14:31;10.90;99.90
1123;DHT22;548;48.778;9.252;2022-12-26T11:17:01;10.80;99.90
1123;DHT22;548;48.778;9.252;2022-12-26T11:19:32;10.90;99.90
1123;DHT22;548;48.778;9.252;2022-12-26T11:22:19;10.80;99.90
1123;DHT22;548;48.778;9.252;2022-12-26T11:24:52;10.90;99.90
1123;DHT22;548;48.778;9.252;2022-12-26T11:27:27;10.90;99.90
1123;DHT22;548;48.778;9.252;2022-12-26T11:30:14;11.00;99.90
1123;DHT22;548;48.778;9.252;2022-12-26T11:32:42;11.00;99.90
1123;DHT22;548;48.778;9.252;2022-12-26T11:35:17;11.10;99.90
1123;DHT22;548;48.778;9.252;2022-12-26T11:37:45;11.20;99.90
1123;DHT22;548;48.778;9.252;2022-12-26T11:40:16;11.20;99.90
1123;DHT22;548;48.778;9.252;2022-12-26T11:42:48;11.10;99.90
1123;DHT22;548;48.778;9.252;2022-12-26T11:45:20;11.20;99.90
1123;DHT22;548;48.778;9.252;2022-12-26T11:47:48;11.20;99.90
1123;DHT22;548;48.778;9.252;2022-12-26T11:50:17;11.20;99.90
1123;DHT22;548;48.778;9.252;2022-12-26T11:52:50;11.20;99.90
1123;DHT22;548;48.778;9.252;2022-12-26T11:55:30;11.20;99.90
1123;DHT22;548;48.778;9.252;2022-12-26T11:57:59;11.20;99.90
1123;DHT22;548;48.778;9.252;2022-12-26T12:00:31;11.20;99.90
1123;DHT22;548;48.778;9.252;2022-12-26T12:02:58;11.20;99.90
1123;DHT22;548;48.778;9.252;2022-12-26T12:05:38;11.20;99.90
1123;DHT22;548;48.778;9.252;2022-12-26T12:08:20;11.30;99.90
1123;DHT22;548;48.778;9.252;2022-12-26T12:10:57;11.30;99.90
1123;DHT22;548;48.778;9.252;2022-12-26T12:16:31;11.40;99.90
1123;DHT22;548;48.778;9.252;2022-12-26T12:19:11;11.50;99.90
1123;DHT22;548;48.778;9.252;2022-12-26T12:21:43;11.80;99.90
1123;DHT22;548;48.778;9.252;2022-12-26T12:24:33;11.70;99.90
1123;DHT22;548;48.778;9.252;2022-12-26T12:27:08;11.80;99.90
1123;DHT22;548;48.778;9.252;2022-12-26T12:29:49;11.80;99.90
1123;DHT22;548;48.778;9.252;2022-12-26T12:32:26;11.80;99.90
1123;DHT22;548;48.778;9.252;2022-12-26T12:35:21;11.90;99.90
1123;DHT22;548;48.778;9.252;2022-12-26T12:38:05;12.00;99.90
1123;DHT22;548;48.778;9.252;2022-12-26T12:40:42;12.10;99.90
1123;DHT22;548;48.778;9.252;2022-12-26T12:43:17;12.10;99.90
1123;DHT22;548;48.778;9.252;2022-12-26T12:45:56;12.10;99.90
1123;DHT22;548;48.778;9.252;2022-12-26T12:48:52;12.00;99.90
1123;DHT22;548;48.778;9.252;2022-12-26T12:51:27;12.10;99.90
1123;DHT22;548;48.778;9.252;2022-12-26T12:57:05;12.10;99.90
1123;DHT22;548;48.778;9.252;2022-12-26T12:59:46;12.10;99.90
1123;DHT22;548;48.778;9.252;2022-12-26T13:02:17;12.30;99.90
1123;DHT22;548;48.778;9.252;2022-12-26T13:04:49;12.30;99.90
1123;DHT22;548;48.778;9.252;2022-12-26T13:07:20;12.30;99.90
1123;DHT22;548;48.778;9.252;2022-12-26T13:09:53;12.20;99.90
1123;DHT22;548;48.778;9.252;2022-12-26T13:12:24;12.20;99.90
1123;DHT22;548;48.778;9.252;2022-12-26T13:14:56;12.20;99.90
1123;DHT22;548;48.778;9.252;2022-12-26T13:17:28;12.20;99.90
1123;DHT22;548;48.778;9.252;2022-12-26T13:20:00;12.30;99.90
1123;DHT22;548;48.778;9.252;2022-12-26T13:22:32;12.20;99.90
1123;DHT22;548;48.778;9.252;2022-12-26T13:25:23;12.20;99.90
1123;DHT22;548;48.778;9.252;2022-12-26T13:27:50;12.20;99.90
1123;DHT22;548;48.778;9.252;2022-12-26T13:30:19;12.20;99.90
1123;DHT22;548;48.778;9.252;2022-12-26T13:32:46;12.20;99.90
1123;DHT22;548;48.778;9.252;2022-12-26T13:38:16;12.20;99.90
1123;DHT22;548;48.778;9.252;2022-12-26T13:40:46;12.20;99.90
1123;DHT22;548;48.778;9.252;2022-12-26T13:43:18;12.20;99.90
1123;DHT22;548;48.778;9.252;2022-12-26T13:46:03;12.20;99.90
1123;DHT22;548;48.778;9.252;2022-12-26T13:48:57;12.20;99.90
1123;DHT22;548;48.778;9.252;2022-12-26T13:51:48;12.30;99.90
1123;DHT22;548;48.778;9.252;2022-12-26T13:54:16;12.40;99.90
1123;DHT22;548;48.778;9.252;2022-12-26T14:00:08;12.40;99.90
1123;DHT22;548;48.778;9.252;2022-12-26T14:03:02;12.40;99.90
1123;DHT22;548;48.778;9.252;2022-12-26T14:05:39;12.30;99.90
1123;DHT22;548;48.778;9.252;2022-12-26T14:08:15;12.30;99.90
1123;DHT22;548;48.778;9.252;2022-12-26T14:10:53;12.30;99.90
1123;DHT22;548;48.778;9.252;2022-12-26T14:13:48;12.20;99.90
1123;DHT22;548;48.778;9.252;2022-12-26T14:16:26;12.20;99.90
1123;DHT22;548;48.778;9.252;2022-12-26T14:19:01;12.20;99.90
1123;DHT22;548;48.778;9.252;2022-12-26T14:21:42;12.20;99.90
1123;DHT22;548;48.778;9.252;2022-12-26T14:27:32;12.20;99.90
1123;DHT22;548;48.778;9.252;2022-12-26T14:30:19;12.20;99.90
1123;DHT22;548;48.778;9.252;2022-12-26T14:32:58;12.30;99.90
1123;DHT22;548;48.778;9.252;2022-12-26T14:35:32;12.30;99.90
1123;DHT22;548;48.778;9.252;2022-12-26T14:38:10;12.20;99.90
1123;DHT22;548;48.778;9.252;2022-12-26T14:40:57;12.20;99.90
1123;DHT22;548;48.778;9.252;2022-12-26T14:43:36;12.10;99.90
1123;DHT22;548;48.778;9.252;2022-12-26T14:46:04;12.10;99.90
1123;DHT22;548;48.778;9.252;2022-12-26T14:49:19;12.10;99.90
1123;DHT22;548;48.778;9.252;2022-12-26T14:51:47;12.10;99.90
1123;DHT22;548;48.778;9.252;2022-12-26T14:54:38;12.00;99.90
1123;DHT22;548;48.778;9.252;2022-12-26T14:57:43;12.00;99.90
1123;DHT22;548;48.778;9.252;2022-12-26T15:00:28;12.00;99.90
1123;DHT22;548;48.778;9.252;2022-12-26T15:03:33;12.00;99.90
1123;DHT22;548;48.778;9.252;2022-12-26T15:06:56;11.90;99.90
1123;DHT22;548;48.778;9.252;2022-12-26T15:09:51;11.90;99.90
1123;DHT22;548;48.778;9.252;2022-12-26T15:13:05;11.80;99.90
1123;DHT22;548;48.778;9.252;2022-12-26T15:15:50;11.80;99.90
1123;DHT22;548;48.778;9.252;2022-12-26T15:18:47;11.80;99.90
1123;DHT22;548;48.778;9.252;2022-12-26T15:25:08;11.80;99.90
1123;DHT22;548;48.778;9.252;2022-12-26T15:28:02;11.70;99.90
1123;DHT22;548;48.778;9.252;2022-12-26T15:30:46;11.70;99.90
1123;DHT22;548;48.778;9.252;2022-12-26T15:33:20;11.70;99.90
1123;DHT22;548;48.778;9.252;2022-12-26T15:35:52;11.70;99.90
1123;DHT22;548;48.778;9.252;2022-12-26T15:38:26;11.70;99.90
1123;DHT22;548;48.778;9.252;2022-12-26T15:41:11;11.70;99.90
1123;DHT22;548;48.778;9.252;2022-12-26T15:43:55;11.80;99.90
1123;DHT22;548;48.778;9.252;2022-12-26T15:46:27;11.80;99.90
1123;DHT22;548;48.778;9.252;2022-12-26T15:52:07;11.80;99.90
1123;DHT22;548;48.778;9.252;2022-12-26T15:54:58;11.80;99.90
1123;DHT22;548;48.778;9.252;2022-12-26T15:57:36;11.80;99.90
1123;DHT22;548;48.778;9.252;2022-12-26T16:00:10;11.70;99.90
1123;DHT22;548;48.778;9.252;2022-12-26T16:02:44;11.70;99.90
1123;DHT22;548;48.778;9.252;2022-12-26T16:05:31;11.70;99.90
1123;DHT22;548;48.778;9.252;2022-12-26T16:08:14;11.70;99.90
1123;DHT22;548;48.778;9.252;2022-12-26T16:10:42;11.80;99.90
1123;DHT22;548;48.778;9.252;2022-12-26T16:13:16;11.80;99.90
1123;DHT22;548;48.778;9.252;2022-12-26T16:15:49;11.80;99.90
1123;DHT22;548;48.778;9.252;2022-12-26T16:18:17;11.70;99.90
1123;DHT22;548;48.778;9.252;2022-12-26T16:20:45;11.60;99.90
1123;DHT22;548;48.778;9.252;2022-12-26T16:23:35;11.60;99.90
1123;DHT22;548;48.778;9.252;2022-12-26T16:26:03;11.50;99.90
1123;DHT22;548;48.778;9.252;2022-12-26T16:28:34;11.50;99.90
1123;DHT22;548;48.778;9.252;2022-12-26T16:31:02;11.60;99.90
1123;DHT22;548;48.778;9.252;2022-12-26T16:33:31;11.60;99.90
1123;DHT22;548;48.778;9.252;2022-12-26T16:36:00;11.60;99.90
1123;DHT22;548;48.778;9.252;2022-12-26T16:38:29;11.70;99.90
1123;DHT22;548;48.778;9.252;2022-12-26T16:40:56;11.70;99.90
1123;DHT22;548;48.778;9.252;2022-12-26T16:43:27;11.70;99.90
1123;DHT22;548;48.778;9.252;2022-12-26T16:45:57;11.70;99.90
1123;DHT22;548;48.778;9.252;2022-12-26T16:48:30;11.70;99.90
1123;DHT22;548;48.778;9.252;2022-12-26T16:50:59;11.60;99.90
1123;DHT22;548;48.778;9.252;2022-12-26T16:53:41;11.60;99.90
1123;DHT22;548;48.778;9.252;2022-12-26T16:56:23;11.60;99.90
1123;DHT22;548;48.778;9.252;2022-12-26T16:58:54;11.60;99.90
1123;DHT22;548;48.778;9.252;2022-12-26T17:01:24;11.50;99.90
1123;DHT22;548;48.778;9.252;2022-12-26T17:03:55;11.50;99.90
1123;DHT22;548;48.778;9.252;2022-12-26T17:06:25;11.50;99.90
1123;DHT22;548;48.778;9.252;2022-12-26T17:08:54;11.40;99.90
1123;DHT22;548;48.778;9.252;2022-12-26T17:11:27;11.40;99.90
1123;DHT22;548;48.778;9.252;2022-12-26T17:13:54;11.30;99.90
1123;DHT22;548;48.778;9.252;2022-12-26T17:16:24;11.30;99.90
1123;DHT22;548;48.778;9.252;2022-12-26T17:18:53;11.30;99.90
1123;DHT22;548;48.778;9.252;2022-12-26T17:21:23;11.30;99.90
1123;DHT22;548;48.778;9.252;2022-12-26T17:24:23;11.20;99.90
1123;DHT22;548;48.778;9.252;2022-12-26T17:27:05;11.20;99.90